sensor_id;sensor_type;location;lat;lon;timestamp;P1;durP1;ratioP1;P2;durP2;ratioP2
21639;SDS011;10981;45.462;10.974;2023-07-02T00:00:23;11.15;;;9.07;;
21639;SDS011;10981;45.462;10.974;2023-07-02T00:02:51;11.90;;;9.18;;
21639;SDS011;10981;45.462;10.974;2023-07-02T00:05:19;10.98;;;9.82;;
21639;SDS011;10981;45.462;10.974;2023-07-02T00:07:48;9.88;;;8.98;;
21639;SDS011;10981;45.462;10.974;2023-07-02T00:10:16;9.73;;;8.38;;
21639;SDS011;10981;45.462;10.974;2023-07-02T00:12:44;10.63;;;8.40;;
21639;SDS011;10981;45.462;10.974;2023-07-02T00:15:12;10.27;;;9.05;;
21639;SDS011;10981;45.462;10.974;2023-07-02T00:17:41;9.48;;;8.57;;
21639;SDS011;10981;45.462;10.974;2023-07-02T00:20:09;11.52;;;9.40;;
21639;SDS011;10981;45.462;10.974;2023-07-02T00:22:44;10.32;;;8.98;;
21639;SDS011;10981;45.462;10.974;2023-07-02T00:25:14;13.23;;;9.25;;
21639;SDS011;10981;45.462;10.974;2023-07-02T00:27:42;10.57;;;8.80;;
21639;SDS011;10981;45.462;10.974;2023-07-02T00:30:10;11.68;;;8.73;;
21639;SDS011;10981;45.462;10.974;2023-07-02T00:32:39;9.75;;;8.50;;
21639;SDS011;10981;45.462;10.974;2023-07-02T00:35:07;11.93;;;9.48;;
21639;SDS011;10981;45.462;10.974;2023-07-02T00:37:35;19.67;;;10.38;;
21639;SDS011;10981;45.462;10.974;2023-07-02T00:40:04;12.85;;;9.80;;
21639;SDS011;10981;45.462;10.974;2023-07-02T00:42:33;11.10;;;9.55;;
21639;SDS011;10981;45.462;10.974;2023-07-02T00:45:01;12.05;;;8.85;;
21639;SDS011;10981;45.462;10.974;2023-07-02T00:47:35;11.57;;;9.52;;
21639;SDS011;10981;45.462;10.974;2023-07-02T00:50:04;12.27;;;10.25;;
21639;SDS011;10981;45.462;10.974;2023-07-02T00:52:37;11.15;;;9.98;;
21639;SDS011;10981;45.462;10.974;2023-07-02T00:55:05;11.07;;;9.60;;
21639;SDS011;10981;45.462;10.974;2023-07-02T00:57:34;12.50;;;10.05;;
21639;SDS011;10981;45.462;10.974;2023-07-02T01:00:02;10.02;;;9.13;;
21639;SDS011;10981;45.462;10.974;2023-07-02T01:02:32;10.18;;;9.18;;
21639;SDS011;10981;45.462;10.974;2023-07-02T01:05:00;10.95;;;9.25;;
21639;SDS011;10981;45.462;10.974;2023-07-02T01:07:29;12.15;;;9.75;;
21639;SDS011;10981;45.462;10.974;2023-07-02T01:09:57;10.90;;;9.88;;
21639;SDS011;10981;45.462;10.974;2023-07-02T01:12:26;11.57;;;10.23;;
21639;SDS011;10981;45.462;10.974;2023-07-02T01:14:56;12.90;;;11.05;;
21639;SDS011;10981;45.462;10.974;2023-07-02T01:17:31;11.73;;;10.50;;
21639;SDS011;10981;45.462;10.974;2023-07-02T01:20:09;11.88;;;10.57;;
21639;SDS011;10981;45.462;10.974;2023-07-02T01:22:39;14.85;;;10.23;;
21639;SDS011;10981;45.462;10.974;2023-07-02T01:25:07;12.02;;;10.63;;
21639;SDS011;10981;45.462;10.974;2023-07-02T01:27:36;12.38;;;11.00;;
21639;SDS011;10981;45.462;10.974;2023-07-02T01:30:06;13.35;;;11.55;;
21639;SDS011;10981;45.462;10.974;2023-07-02T01:32:41;13.35;;;11.20;;
21639;SDS011;10981;45.462;10.974;2023-07-02T01:35:10;13.23;;;10.73;;
21639;SDS011;10981;45.462;10.974;2023-07-02T01:37:38;14.00;;;10.35;;
21639;SDS011;10981;45.462;10.974;2023-07-02T01:40:06;12.82;;;11.48;;
21639;SDS011;10981;45.462;10.974;2023-07-02T01:42:36;14.88;;;11.20;;
21639;SDS011;10981;45.462;10.974;2023-07-02T01:45:04;15.73;;;12.43;;
21639;SDS011;10981;45.462;10.974;2023-07-02T01:47:33;19.98;;;12.40;;
21639;SDS011;10981;45.462;10.974;2023-07-02T01:50:03;14.55;;;12.73;;
21639;SDS011;10981;45.462;10.974;2023-07-02T01:52:32;15.38;;;12.15;;
21639;SDS011;10981;45.462;10.974;2023-07-02T01:55:01;15.48;;;12.82;;
21639;SDS011;10981;45.462;10.974;2023-07-02T01:57:31;16.40;;;14.25;;
21639;SDS011;10981;45.462;10.974;2023-07-02T01:59:59;13.15;;;11.80;;
21639;SDS011;10981;45.462;10.974;2023-07-02T02:02:28;15.52;;;12.60;;
21639;SDS011;10981;45.462;10.974;2023-07-02T02:04:56;13.65;;;11.15;;
21639;SDS011;10981;45.462;10.974;2023-07-02T02:07:24;13.05;;;11.68;;
21639;SDS011;10981;45.462;10.974;2023-07-02T02:09:53;15.48;;;11.43;;
21639;SDS011;10981;45.462;10.974;2023-07-02T02:12:21;12.52;;;11.02;;
21639;SDS011;10981;45.462;10.974;2023-07-02T02:14:52;12.68;;;11.15;;
21639;SDS011;10981;45.462;10.974;2023-07-02T02:17:21;16.45;;;12.07;;
21639;SDS011;10981;45.462;10.974;2023-07-02T02:19:50;15.88;;;12.38;;
21639;SDS011;10981;45.462;10.974;2023-07-02T02:22:19;14.73;;;12.85;;
21639;SDS011;10981;45.462;10.974;2023-07-02T02:24:47;16.90;;;12.90;;
21639;SDS011;10981;45.462;10.974;2023-07-02T02:27:15;14.95;;;13.50;;
21639;SDS011;10981;45.462;10.974;2023-07-02T02:29:44;16.20;;;13.40;;
21639;SDS011;10981;45.462;10.974;2023-07-02T02:32:14;15.07;;;13.45;;
21639;SDS011;10981;45.462;10.974;2023-07-02T02:34:44;15.75;;;13.82;;
21639;SDS011;10981;45.462;10.974;2023-07-02T02:37:13;15.23;;;13.70;;
21639;SDS011;10981;45.462;10.974;2023-07-02T02:39:41;15.90;;;14.10;;
21639;SDS011;10981;45.462;10.974;2023-07-02T02:42:10;14.13;;;12.75;;
21639;SDS011;10981;45.462;10.974;2023-07-02T02:44:41;17.83;;;12.55;;
21639;SDS011;10981;45.462;10.974;2023-07-02T02:47:09;14.48;;;12.57;;
21639;SDS011;10981;45.462;10.974;2023-07-02T02:49:39;14.95;;;12.27;;
21639;SDS011;10981;45.462;10.974;2023-07-02T02:52:07;16.00;;;13.80;;
21639;SDS011;10981;45.462;10.974;2023-07-02T02:54:36;13.95;;;12.50;;
21639;SDS011;10981;45.462;10.974;2023-07-02T02:57:04;18.02;;;13.68;;
21639;SDS011;10981;45.462;10.974;2023-07-02T02:59:32;14.52;;;12.65;;
21639;SDS011;10981;45.462;10.974;2023-07-02T03:02:00;16.15;;;12.85;;
21639;SDS011;10981;45.462;10.974;2023-07-02T03:04:29;18.05;;;13.48;;
21639;SDS011;10981;45.462;10.974;2023-07-02T03:06:57;16.13;;;12.60;;
21639;SDS011;10981;45.462;10.974;2023-07-02T03:09:25;15.98;;;13.90;;
21639;SDS011;10981;45.462;10.974;2023-07-02T03:11:54;16.77;;;14.90;;
21639;SDS011;10981;45.462;10.974;2023-07-02T03:14:22;18.23;;;14.88;;
21639;SDS011;10981;45.462;10.974;2023-07-02T03:16:51;16.73;;;13.60;;
21639;SDS011;10981;45.462;10.974;2023-07-02T03:19:19;21.80;;;16.10;;
21639;SDS011;10981;45.462;10.974;2023-07-02T03:21:47;17.75;;;14.60;;
21639;SDS011;10981;45.462;10.974;2023-07-02T03:24:15;19.55;;;14.57;;
21639;SDS011;10981;45.462;10.974;2023-07-02T03:26:44;18.60;;;14.10;;
21639;SDS011;10981;45.462;10.974;2023-07-02T03:29:13;15.82;;;14.15;;
21639;SDS011;10981;45.462;10.974;2023-07-02T03:31:43;16.63;;;14.70;;
21639;SDS011;10981;45.462;10.974;2023-07-02T03:34:11;19.88;;;13.85;;
21639;SDS011;10981;45.462;10.974;2023-07-02T03:36:39;20.20;;;15.05;;
21639;SDS011;10981;45.462;10.974;2023-07-02T03:39:08;20.52;;;14.05;;
21639;SDS011;10981;45.462;10.974;2023-07-02T03:41:39;23.08;;;13.70;;
21639;SDS011;10981;45.462;10.974;2023-07-02T03:44:07;17.70;;;13.30;;
21639;SDS011;10981;45.462;10.974;2023-07-02T03:46:35;18.20;;;13.52;;
21639;SDS011;10981;45.462;10.974;2023-07-02T03:49:04;19.50;;;14.45;;
21639;SDS011;10981;45.462;10.974;2023-07-02T03:51:32;17.23;;;12.30;;
21639;SDS011;10981;45.462;10.974;2023-07-02T03:54:00;16.48;;;13.32;;
21639;SDS011;10981;45.462;10.974;2023-07-02T03:56:28;18.17;;;12.55;;
21639;SDS011;10981;45.462;10.974;2023-07-02T03:58:56;15.02;;;13.02;;
21639;SDS011;10981;45.462;10.974;2023-07-02T04:01:24;15.65;;;13.15;;
21639;SDS011;10981;45.462;10.974;2023-07-02T04:03:55;16.45;;;13.18;;
21639;SDS011;10981;45.462;10.974;2023-07-02T04:06:23;15.85;;;13.50;;
21639;SDS011;10981;45.462;10.974;2023-07-02T04:08:51;16.23;;;13.55;;
21639;SDS011;10981;45.462;10.974;2023-07-02T04:11:19;16.88;;;13.73;;
21639;SDS011;10981;45.462;10.974;2023-07-02T04:13:48;17.17;;;14.20;;
21639;SDS011;10981;45.462;10.974;2023-07-02T04:16:16;17.23;;;13.80;;
21639;SDS011;10981;45.462;10.974;2023-07-02T04:18:44;17.58;;;13.80;;
21639;SDS011;10981;45.462;10.974;2023-07-02T04:21:15;17.60;;;14.63;;
21639;SDS011;10981;45.462;10.974;2023-07-02T04:23:43;17.88;;;15.57;;
21639;SDS011;10981;45.462;10.974;2023-07-02T04:26:11;23.52;;;14.73;;
21639;SDS011;10981;45.462;10.974;2023-07-02T04:29:00;18.10;;;15.13;;
21639;SDS011;10981;45.462;10.974;2023-07-02T04:31:28;18.05;;;14.88;;
21639;SDS011;10981;45.462;10.974;2023-07-02T04:33:57;18.52;;;14.73;;
21639;SDS011;10981;45.462;10.974;2023-07-02T04:36:28;20.73;;;15.32;;
21639;SDS011;10981;45.462;10.974;2023-07-02T04:38:56;15.27;;;13.75;;
21639;SDS011;10981;45.462;10.974;2023-07-02T04:41:24;15.63;;;13.95;;
21639;SDS011;10981;45.462;10.974;2023-07-02T04:43:53;14.85;;;13.30;;
21639;SDS011;10981;45.462;10.974;2023-07-02T04:46:21;15.02;;;13.07;;
21639;SDS011;10981;45.462;10.974;2023-07-02T04:48:51;16.63;;;13.23;;
21639;SDS011;10981;45.462;10.974;2023-07-02T04:51:20;16.67;;;12.80;;
21639;SDS011;10981;45.462;10.974;2023-07-02T04:53:48;18.98;;;13.25;;
21639;SDS011;10981;45.462;10.974;2023-07-02T04:56:17;15.60;;;12.77;;
21639;SDS011;10981;45.462;10.974;2023-07-02T04:58:45;15.20;;;12.20;;
21639;SDS011;10981;45.462;10.974;2023-07-02T05:01:13;13.10;;;11.18;;
21639;SDS011;10981;45.462;10.974;2023-07-02T05:03:41;15.73;;;12.35;;
21639;SDS011;10981;45.462;10.974;2023-07-02T05:06:10;13.93;;;12.30;;
21639;SDS011;10981;45.462;10.974;2023-07-02T05:08:38;20.77;;;13.20;;
21639;SDS011;10981;45.462;10.974;2023-07-02T05:11:09;16.08;;;12.43;;
21639;SDS011;10981;45.462;10.974;2023-07-02T05:13:39;13.52;;;11.82;;
21639;SDS011;10981;45.462;10.974;2023-07-02T05:16:07;21.13;;;13.23;;
21639;SDS011;10981;45.462;10.974;2023-07-02T05:18:35;15.13;;;12.73;;
21639;SDS011;10981;45.462;10.974;2023-07-02T05:21:03;15.38;;;12.52;;
21639;SDS011;10981;45.462;10.974;2023-07-02T05:23:31;16.92;;;12.95;;
21639;SDS011;10981;45.462;10.974;2023-07-02T05:26:00;18.77;;;12.93;;
21639;SDS011;10981;45.462;10.974;2023-07-02T05:28:28;15.43;;;13.30;;
21639;SDS011;10981;45.462;10.974;2023-07-02T05:30:57;18.27;;;12.85;;
21639;SDS011;10981;45.462;10.974;2023-07-02T05:33:25;17.00;;;13.55;;
21639;SDS011;10981;45.462;10.974;2023-07-02T05:35:53;15.65;;;11.82;;
21639;SDS011;10981;45.462;10.974;2023-07-02T05:38:21;15.07;;;12.18;;
21639;SDS011;10981;45.462;10.974;2023-07-02T05:40:50;14.63;;;11.40;;
21639;SDS011;10981;45.462;10.974;2023-07-02T05:43:18;12.73;;;11.40;;
21639;SDS011;10981;45.462;10.974;2023-07-02T05:45:46;14.10;;;10.80;;
21639;SDS011;10981;45.462;10.974;2023-07-02T05:48:15;13.80;;;11.43;;
21639;SDS011;10981;45.462;10.974;2023-07-02T05:50:43;14.63;;;10.60;;
21639;SDS011;10981;45.462;10.974;2023-07-02T05:53:11;16.42;;;11.20;;
21639;SDS011;10981;45.462;10.974;2023-07-02T05:55:39;15.35;;;11.45;;
21639;SDS011;10981;45.462;10.974;2023-07-02T05:58:11;16.33;;;11.07;;
21639;SDS011;10981;45.462;10.974;2023-07-02T06:00:39;13.68;;;10.35;;
21639;SDS011;10981;45.462;10.974;2023-07-02T06:03:08;13.48;;;9.93;;
21639;SDS011;10981;45.462;10.974;2023-07-02T06:05:37;12.80;;;10.10;;
21639;SDS011;10981;45.462;10.974;2023-07-02T06:08:05;15.48;;;11.68;;
21639;SDS011;10981;45.462;10.974;2023-07-02T06:10:33;12.68;;;10.05;;
21639;SDS011;10981;45.462;10.974;2023-07-02T06:13:02;14.15;;;10.68;;
21639;SDS011;10981;45.462;10.974;2023-07-02T06:15:30;13.88;;;10.10;;
21639;SDS011;10981;45.462;10.974;2023-07-02T06:17:58;14.50;;;10.10;;
21639;SDS011;10981;45.462;10.974;2023-07-02T06:20:27;16.92;;;10.38;;
21639;SDS011;10981;45.462;10.974;2023-07-02T06:22:55;12.95;;;9.98;;
21639;SDS011;10981;45.462;10.974;2023-07-02T06:25:24;12.88;;;9.80;;
21639;SDS011;10981;45.462;10.974;2023-07-02T06:27:52;13.43;;;9.55;;
21639;SDS011;10981;45.462;10.974;2023-07-02T06:30:22;12.05;;;9.63;;
21639;SDS011;10981;45.462;10.974;2023-07-02T06:32:54;15.68;;;9.88;;
21639;SDS011;10981;45.462;10.974;2023-07-02T06:35:24;15.93;;;10.77;;
21639;SDS011;10981;45.462;10.974;2023-07-02T06:37:52;16.02;;;10.00;;
21639;SDS011;10981;45.462;10.974;2023-07-02T06:40:21;17.60;;;11.85;;
21639;SDS011;10981;45.462;10.974;2023-07-02T06:42:52;17.27;;;10.77;;
21639;SDS011;10981;45.462;10.974;2023-07-02T06:45:20;13.90;;;10.38;;
21639;SDS011;10981;45.462;10.974;2023-07-02T06:47:49;13.43;;;10.32;;
21639;SDS011;10981;45.462;10.974;2023-07-02T06:50:18;18.88;;;12.02;;
21639;SDS011;10981;45.462;10.974;2023-07-02T06:52:46;16.52;;;11.05;;
21639;SDS011;10981;45.462;10.974;2023-07-02T06:55:14;13.48;;;11.43;;
21639;SDS011;10981;45.462;10.974;2023-07-02T06:57:43;16.38;;;11.82;;
21639;SDS011;10981;45.462;10.974;2023-07-02T07:00:12;11.43;;;9.15;;
21639;SDS011;10981;45.462;10.974;2023-07-02T07:02:41;17.08;;;10.68;;
21639;SDS011;10981;45.462;10.974;2023-07-02T07:05:10;13.55;;;10.32;;
21639;SDS011;10981;45.462;10.974;2023-07-02T07:07:38;17.02;;;12.02;;
21639;SDS011;10981;45.462;10.974;2023-07-02T07:10:06;17.35;;;12.40;;
21639;SDS011;10981;45.462;10.974;2023-07-02T07:12:35;13.10;;;11.13;;
21639;SDS011;10981;45.462;10.974;2023-07-02T07:15:03;14.18;;;11.30;;
21639;SDS011;10981;45.462;10.974;2023-07-02T07:17:32;15.88;;;11.35;;
21639;SDS011;10981;45.462;10.974;2023-07-02T07:20:00;13.68;;;10.57;;
21639;SDS011;10981;45.462;10.974;2023-07-02T07:22:33;17.70;;;13.52;;
21639;SDS011;10981;45.462;10.974;2023-07-02T07:25:01;16.33;;;12.15;;
21639;SDS011;10981;45.462;10.974;2023-07-02T07:27:30;18.52;;;12.88;;
21639;SDS011;10981;45.462;10.974;2023-07-02T07:29:58;17.17;;;13.68;;
21639;SDS011;10981;45.462;10.974;2023-07-02T07:32:26;16.67;;;12.32;;
21639;SDS011;10981;45.462;10.974;2023-07-02T07:34:54;17.85;;;12.25;;
21639;SDS011;10981;45.462;10.974;2023-07-02T07:37:23;19.05;;;11.70;;
21639;SDS011;10981;45.462;10.974;2023-07-02T07:39:54;16.67;;;14.32;;
21639;SDS011;10981;45.462;10.974;2023-07-02T07:42:23;19.13;;;13.48;;
21639;SDS011;10981;45.462;10.974;2023-07-02T07:44:51;17.42;;;12.70;;
21639;SDS011;10981;45.462;10.974;2023-07-02T07:47:19;17.08;;;12.20;;
21639;SDS011;10981;45.462;10.974;2023-07-02T07:49:48;17.65;;;14.07;;
21639;SDS011;10981;45.462;10.974;2023-07-02T07:52:16;19.45;;;13.57;;
21639;SDS011;10981;45.462;10.974;2023-07-02T07:54:44;19.17;;;14.65;;
21639;SDS011;10981;45.462;10.974;2023-07-02T07:57:13;17.13;;;13.35;;
21639;SDS011;10981;45.462;10.974;2023-07-02T07:59:41;22.67;;;14.90;;
21639;SDS011;10981;45.462;10.974;2023-07-02T08:02:09;17.95;;;15.82;;
21639;SDS011;10981;45.462;10.974;2023-07-02T08:04:38;24.63;;;16.17;;
21639;SDS011;10981;45.462;10.974;2023-07-02T08:07:06;25.45;;;16.73;;
21639;SDS011;10981;45.462;10.974;2023-07-02T08:09:38;18.52;;;15.05;;
21639;SDS011;10981;45.462;10.974;2023-07-02T08:12:06;18.55;;;13.43;;
21639;SDS011;10981;45.462;10.974;2023-07-02T08:14:35;20.70;;;14.98;;
21639;SDS011;10981;45.462;10.974;2023-07-02T08:17:03;19.52;;;14.95;;
21639;SDS011;10981;45.462;10.974;2023-07-02T08:19:31;21.67;;;16.60;;
21639;SDS011;10981;45.462;10.974;2023-07-02T08:21:59;23.05;;;15.90;;
21639;SDS011;10981;45.462;10.974;2023-07-02T08:24:28;18.58;;;14.48;;
21639;SDS011;10981;45.462;10.974;2023-07-02T08:26:58;18.10;;;13.00;;
21639;SDS011;10981;45.462;10.974;2023-07-02T08:29:29;19.92;;;13.40;;
21639;SDS011;10981;45.462;10.974;2023-07-02T08:31:57;15.77;;;13.45;;
21639;SDS011;10981;45.462;10.974;2023-07-02T08:34:26;16.95;;;13.45;;
21639;SDS011;10981;45.462;10.974;2023-07-02T08:36:54;15.40;;;12.63;;
21639;SDS011;10981;45.462;10.974;2023-07-02T08:39:22;19.70;;;14.88;;
21639;SDS011;10981;45.462;10.974;2023-07-02T08:41:50;23.38;;;18.13;;
21639;SDS011;10981;45.462;10.974;2023-07-02T08:44:19;22.27;;;16.80;;
21639;SDS011;10981;45.462;10.974;2023-07-02T08:46:49;20.92;;;16.30;;
21639;SDS011;10981;45.462;10.974;2023-07-02T08:49:20;19.60;;;15.35;;
21639;SDS011;10981;45.462;10.974;2023-07-02T08:51:48;18.27;;;15.45;;
21639;SDS011;10981;45.462;10.974;2023-07-02T08:54:17;19.70;;;16.95;;
21639;SDS011;10981;45.462;10.974;2023-07-02T08:56:46;21.88;;;17.85;;
21639;SDS011;10981;45.462;10.974;2023-07-02T08:59:14;17.60;;;14.40;;
21639;SDS011;10981;45.462;10.974;2023-07-02T09:01:50;21.17;;;18.55;;
21639;SDS011;10981;45.462;10.974;2023-07-02T09:04:20;20.30;;;16.40;;
21639;SDS011;10981;45.462;10.974;2023-07-02T09:07:03;24.60;;;19.50;;
21639;SDS011;10981;45.462;10.974;2023-07-02T09:09:31;19.38;;;16.42;;
21639;SDS011;10981;45.462;10.974;2023-07-02T09:12:00;23.95;;;19.23;;
21639;SDS011;10981;45.462;10.974;2023-07-02T09:14:30;23.33;;;18.38;;
21639;SDS011;10981;45.462;10.974;2023-07-02T09:17:08;17.80;;;15.48;;
21639;SDS011;10981;45.462;10.974;2023-07-02T09:19:36;22.42;;;16.60;;
21639;SDS011;10981;45.462;10.974;2023-07-02T09:22:18;22.17;;;18.20;;
21639;SDS011;10981;45.462;10.974;2023-07-02T09:24:53;22.17;;;18.25;;
21639;SDS011;10981;45.462;10.974;2023-07-02T09:32:35;18.55;;;15.65;;
21639;SDS011;10981;45.462;10.974;2023-07-02T09:35:05;20.58;;;16.85;;
21639;SDS011;10981;45.462;10.974;2023-07-02T09:37:33;20.50;;;15.60;;
21639;SDS011;10981;45.462;10.974;2023-07-02T09:40:02;19.58;;;17.55;;
21639;SDS011;10981;45.462;10.974;2023-07-02T09:42:36;21.77;;;17.33;;
21639;SDS011;10981;45.462;10.974;2023-07-02T09:45:07;20.15;;;16.52;;
21639;SDS011;10981;45.462;10.974;2023-07-02T09:47:41;17.02;;;14.85;;
21639;SDS011;10981;45.462;10.974;2023-07-02T09:50:14;17.70;;;14.57;;
21639;SDS011;10981;45.462;10.974;2023-07-02T09:52:44;20.42;;;15.45;;
21639;SDS011;10981;45.462;10.974;2023-07-02T09:55:14;21.20;;;16.38;;
21639;SDS011;10981;45.462;10.974;2023-07-02T09:57:43;19.83;;;16.35;;
21639;SDS011;10981;45.462;10.974;2023-07-02T10:00:12;22.33;;;16.50;;
21639;SDS011;10981;45.462;10.974;2023-07-02T10:02:41;19.67;;;15.50;;
21639;SDS011;10981;45.462;10.974;2023-07-02T10:05:27;19.95;;;15.13;;
21639;SDS011;10981;45.462;10.974;2023-07-02T10:07:57;24.05;;;17.17;;
21639;SDS011;10981;45.462;10.974;2023-07-02T10:10:29;18.63;;;14.60;;
21639;SDS011;10981;45.462;10.974;2023-07-02T10:12:58;21.93;;;16.90;;
21639;SDS011;10981;45.462;10.974;2023-07-02T10:15:27;18.00;;;14.77;;
21639;SDS011;10981;45.462;10.974;2023-07-02T10:18:02;21.40;;;16.25;;
21639;SDS011;10981;45.462;10.974;2023-07-02T10:20:38;20.52;;;17.13;;
21639;SDS011;10981;45.462;10.974;2023-07-02T10:23:08;19.92;;;16.27;;
21639;SDS011;10981;45.462;10.974;2023-07-02T10:25:37;19.77;;;16.67;;
21639;SDS011;10981;45.462;10.974;2023-07-02T10:28:19;20.42;;;16.17;;
21639;SDS011;10981;45.462;10.974;2023-07-02T10:30:53;18.15;;;15.10;;
21639;SDS011;10981;45.462;10.974;2023-07-02T10:33:22;18.80;;;15.77;;
21639;SDS011;10981;45.462;10.974;2023-07-02T10:35:51;20.45;;;17.90;;
21639;SDS011;10981;45.462;10.974;2023-07-02T10:38:20;21.35;;;16.52;;
21639;SDS011;10981;45.462;10.974;2023-07-02T10:40:59;19.02;;;16.80;;
21639;SDS011;10981;45.462;10.974;2023-07-02T10:43:31;18.50;;;15.13;;
21639;SDS011;10981;45.462;10.974;2023-07-02T10:45:59;22.80;;;20.33;;
21639;SDS011;10981;45.462;10.974;2023-07-02T10:48:30;21.65;;;16.02;;
21639;SDS011;10981;45.462;10.974;2023-07-02T10:50:59;18.77;;;16.10;;
21639;SDS011;10981;45.462;10.974;2023-07-02T10:53:37;19.90;;;17.30;;
21639;SDS011;10981;45.462;10.974;2023-07-02T10:56:05;21.90;;;13.70;;
21639;SDS011;10981;45.462;10.974;2023-07-02T10:58:41;19.23;;;14.15;;
21639;SDS011;10981;45.462;10.974;2023-07-02T11:01:13;16.98;;;14.73;;
21639;SDS011;10981;45.462;10.974;2023-07-02T11:03:57;20.23;;;14.02;;
21639;SDS011;10981;45.462;10.974;2023-07-02T11:06:31;23.23;;;17.92;;
21639;SDS011;10981;45.462;10.974;2023-07-02T11:09:00;24.52;;;17.63;;
21639;SDS011;10981;45.462;10.974;2023-07-02T11:11:30;18.20;;;15.02;;
21639;SDS011;10981;45.462;10.974;2023-07-02T11:13:59;19.70;;;16.65;;
21639;SDS011;10981;45.462;10.974;2023-07-02T11:16:27;21.25;;;15.73;;
21639;SDS011;10981;45.462;10.974;2023-07-02T11:19:08;18.73;;;13.32;;
21639;SDS011;10981;45.462;10.974;2023-07-02T11:21:37;20.05;;;17.40;;
21639;SDS011;10981;45.462;10.974;2023-07-02T11:24:06;17.80;;;15.80;;
21639;SDS011;10981;45.462;10.974;2023-07-02T11:26:36;16.42;;;14.25;;
21639;SDS011;10981;45.462;10.974;2023-07-02T11:29:07;20.60;;;15.98;;
21639;SDS011;10981;45.462;10.974;2023-07-02T11:31:39;17.10;;;15.27;;
21639;SDS011;10981;45.462;10.974;2023-07-02T11:34:11;18.35;;;14.95;;
21639;SDS011;10981;45.462;10.974;2023-07-02T11:36:45;18.95;;;15.00;;
21639;SDS011;10981;45.462;10.974;2023-07-02T11:39:14;15.45;;;13.55;;
21639;SDS011;10981;45.462;10.974;2023-07-02T11:41:43;16.30;;;13.32;;
21639;SDS011;10981;45.462;10.974;2023-07-02T11:44:12;17.55;;;15.05;;
21639;SDS011;10981;45.462;10.974;2023-07-02T11:46:41;13.43;;;11.98;;
21639;SDS011;10981;45.462;10.974;2023-07-02T11:49:09;14.90;;;12.88;;
21639;SDS011;10981;45.462;10.974;2023-07-02T11:51:38;14.15;;;11.68;;
21639;SDS011;10981;45.462;10.974;2023-07-02T11:54:10;14.75;;;13.25;;
21639;SDS011;10981;45.462;10.974;2023-07-02T11:56:38;17.98;;;13.93;;
21639;SDS011;10981;45.462;10.974;2023-07-02T11:59:09;15.80;;;12.45;;
21639;SDS011;10981;45.462;10.974;2023-07-02T12:01:40;15.32;;;12.48;;
21639;SDS011;10981;45.462;10.974;2023-07-02T12:04:10;15.57;;;12.48;;
21639;SDS011;10981;45.462;10.974;2023-07-02T12:06:39;13.43;;;12.02;;
21639;SDS011;10981;45.462;10.974;2023-07-02T12:09:07;16.80;;;12.73;;
21639;SDS011;10981;45.462;10.974;2023-07-02T12:11:36;18.20;;;14.45;;
21639;SDS011;10981;45.462;10.974;2023-07-02T12:14:05;15.38;;;13.13;;
21639;SDS011;10981;45.462;10.974;2023-07-02T12:16:34;14.25;;;11.40;;
21639;SDS011;10981;45.462;10.974;2023-07-02T12:19:02;14.77;;;13.00;;
21639;SDS011;10981;45.462;10.974;2023-07-02T12:21:31;15.00;;;12.57;;
21639;SDS011;10981;45.462;10.974;2023-07-02T12:23:59;13.85;;;11.88;;
21639;SDS011;10981;45.462;10.974;2023-07-02T12:26:28;18.00;;;15.25;;
21639;SDS011;10981;45.462;10.974;2023-07-02T12:28:56;15.32;;;12.52;;
21639;SDS011;10981;45.462;10.974;2023-07-02T12:31:24;14.55;;;13.05;;
21639;SDS011;10981;45.462;10.974;2023-07-02T12:33:52;15.40;;;12.38;;
21639;SDS011;10981;45.462;10.974;2023-07-02T12:36:21;15.57;;;13.25;;
21639;SDS011;10981;45.462;10.974;2023-07-02T12:38:49;14.18;;;12.38;;
21639;SDS011;10981;45.462;10.974;2023-07-02T12:41:17;14.70;;;11.52;;
21639;SDS011;10981;45.462;10.974;2023-07-02T12:43:45;13.52;;;10.85;;
21639;SDS011;10981;45.462;10.974;2023-07-02T12:46:14;14.20;;;12.07;;
21639;SDS011;10981;45.462;10.974;2023-07-02T12:48:42;12.40;;;11.07;;
21639;SDS011;10981;45.462;10.974;2023-07-02T12:51:11;15.38;;;12.90;;
21639;SDS011;10981;45.462;10.974;2023-07-02T12:53:39;17.85;;;15.13;;
21639;SDS011;10981;45.462;10.974;2023-07-02T12:56:08;14.77;;;11.93;;
21639;SDS011;10981;45.462;10.974;2023-07-02T12:58:37;14.80;;;12.55;;
21639;SDS011;10981;45.462;10.974;2023-07-02T13:01:05;13.43;;;11.57;;
21639;SDS011;10981;45.462;10.974;2023-07-02T13:03:33;14.52;;;12.77;;
21639;SDS011;10981;45.462;10.974;2023-07-02T13:06:02;14.07;;;11.88;;
21639;SDS011;10981;45.462;10.974;2023-07-02T13:08:30;16.10;;;11.68;;
21639;SDS011;10981;45.462;10.974;2023-07-02T13:11:01;14.40;;;12.30;;
21639;SDS011;10981;45.462;10.974;2023-07-02T13:13:29;14.73;;;11.65;;
21639;SDS011;10981;45.462;10.974;2023-07-02T13:15:57;15.95;;;12.57;;
21639;SDS011;10981;45.462;10.974;2023-07-02T13:18:26;14.43;;;12.52;;
21639;SDS011;10981;45.462;10.974;2023-07-02T13:20:55;13.52;;;12.15;;
21639;SDS011;10981;45.462;10.974;2023-07-02T13:23:23;12.43;;;11.23;;
21639;SDS011;10981;45.462;10.974;2023-07-02T13:25:51;12.43;;;10.75;;
21639;SDS011;10981;45.462;10.974;2023-07-02T13:28:20;14.68;;;12.88;;
21639;SDS011;10981;45.462;10.974;2023-07-02T13:30:49;14.20;;;10.85;;
21639;SDS011;10981;45.462;10.974;2023-07-02T13:33:17;13.30;;;11.57;;
21639;SDS011;10981;45.462;10.974;2023-07-02T13:35:45;11.90;;;10.55;;
21639;SDS011;10981;45.462;10.974;2023-07-02T13:38:14;13.95;;;11.88;;
21639;SDS011;10981;45.462;10.974;2023-07-02T13:40:42;13.77;;;10.52;;
21639;SDS011;10981;45.462;10.974;2023-07-02T13:43:11;19.20;;;11.45;;
21639;SDS011;10981;45.462;10.974;2023-07-02T13:45:39;15.15;;;12.18;;
21639;SDS011;10981;45.462;10.974;2023-07-02T13:48:08;14.80;;;10.27;;
21639;SDS011;10981;45.462;10.974;2023-07-02T13:50:36;11.10;;;10.00;;
21639;SDS011;10981;45.462;10.974;2023-07-02T13:53:04;15.20;;;11.00;;
21639;SDS011;10981;45.462;10.974;2023-07-02T13:55:32;14.80;;;10.32;;
21639;SDS011;10981;45.462;10.974;2023-07-02T13:58:01;12.70;;;10.55;;
21639;SDS011;10981;45.462;10.974;2023-07-02T14:00:29;12.93;;;10.50;;
21639;SDS011;10981;45.462;10.974;2023-07-02T14:02:57;14.00;;;9.90;;
21639;SDS011;10981;45.462;10.974;2023-07-02T14:05:26;11.80;;;10.05;;
21639;SDS011;10981;45.462;10.974;2023-07-02T14:07:56;13.10;;;11.30;;
21639;SDS011;10981;45.462;10.974;2023-07-02T14:10:25;12.65;;;9.95;;
21639;SDS011;10981;45.462;10.974;2023-07-02T14:12:55;11.23;;;10.07;;
21639;SDS011;10981;45.462;10.974;2023-07-02T14:15:24;12.48;;;9.43;;
21639;SDS011;10981;45.462;10.974;2023-07-02T14:17:52;12.77;;;10.27;;
21639;SDS011;10981;45.462;10.974;2023-07-02T14:20:21;10.40;;;9.40;;
21639;SDS011;10981;45.462;10.974;2023-07-02T14:22:50;11.68;;;9.90;;
21639;SDS011;10981;45.462;10.974;2023-07-02T14:25:18;11.05;;;9.05;;
21639;SDS011;10981;45.462;10.974;2023-07-02T14:28:06;10.35;;;9.18;;